createdAt,value
2023-01-10T08:06:06.989Z,1013.66
2023-01-10T08:07:06.943Z,1013.62
2023-01-10T08:08:06.947Z,1013.65
2023-01-10T08:09:06.905Z,1013.69
2023-01-10T08:10:06.904Z,1013.67
2023-01-10T08:11:06.899Z,1013.64
2023-01-10T08:12:06.882Z,1013.65
2023-01-10T08:13:18.363Z,1013.62
2023-01-10T08:14:07.897Z,1013.70
2023-01-10T08:15:06.852Z,1013.68
2023-01-10T08:16:06.880Z,1013.68
2023-01-10T08:17:06.828Z,1013.71
2023-01-10T08:18:06.824Z,1013.70
2023-01-10T08:19:06.793Z,1013.73
2023-01-10T08:20:06.791Z,1013.73
2023-01-10T08:21:06.778Z,1013.77
2023-01-10T08:22:06.814Z,1013.83
2023-01-10T08:23:06.768Z,1013.79
2023-01-10T08:24:06.731Z,1013.86
2023-01-10T08:25:06.760Z,1013.83
2023-01-10T08:26:06.714Z,1013.86
2023-01-10T08:27:06.716Z,1013.83
2023-01-10T08:28:06.702Z,1013.83
2023-01-10T08:29:06.694Z,1013.83
2023-01-10T08:30:06.697Z,1013.85
2023-01-10T08:31:06.731Z,1013.85
2023-01-10T08:32:06.645Z,1013.89
2023-01-10T08:33:06.651Z,1013.90
2023-01-10T08:34:06.635Z,1013.88
2023-01-10T08:35:06.659Z,1013.92
2023-01-10T08:36:06.598Z,1013.93
2023-01-10T08:37:06.603Z,1013.90
2023-01-10T08:38:06.606Z,1013.87
2023-01-10T08:39:06.567Z,1013.92
2023-01-10T08:40:06.580Z,1013.91
2023-01-10T08:41:06.542Z,1013.89
2023-01-10T08:42:06.555Z,1013.91
2023-01-10T08:43:06.544Z,1013.92
2023-01-10T08:44:06.505Z,1013.89
2023-01-10T08:45:06.524Z,1013.90
2023-01-10T08:46:06.494Z,1013.87
2023-01-10T08:47:06.483Z,1013.89
2023-01-10T08:48:06.460Z,1013.92
2023-01-10T08:49:06.466Z,1013.85
2023-01-10T08:50:08.013Z,1013.91
2023-01-10T08:51:06.433Z,1013.91
2023-01-10T08:52:06.430Z,1013.91
2023-01-10T08:53:06.420Z,1013.93
2023-01-10T08:54:06.425Z,1013.92
2023-01-10T08:55:06.423Z,1013.94
2023-01-10T08:56:06.383Z,1013.95
2023-01-10T08:57:06.364Z,1013.98
2023-01-10T08:58:06.351Z,1013.91
2023-01-10T08:59:06.362Z,1013.92
2023-01-10T09:00:06.350Z,1013.96
2023-01-10T09:01:06.366Z,1013.93
2023-01-10T09:02:06.370Z,1013.95
2023-01-10T09:03:06.387Z,1014.01
2023-01-10T09:04:06.288Z,1013.99
2023-01-10T09:05:09.819Z,1014.00
2023-01-10T09:06:07.271Z,1014.02
2023-01-10T09:07:06.263Z,1014.03
2023-01-10T09:08:06.257Z,1014.03
2023-01-10T09:09:06.227Z,1014.02
2023-01-10T09:10:06.257Z,1014.10
2023-01-10T09:11:06.221Z,1014.07
2023-01-10T09:12:06.209Z,1014.03
2023-01-10T09:13:06.179Z,1014.09
2023-01-10T09:14:06.176Z,1014.05
2023-01-10T09:15:06.173Z,1014.05
2023-01-10T09:16:06.221Z,1014.01
2023-01-10T09:17:06.156Z,1014.04
2023-01-10T09:18:06.151Z,1014.00
2023-01-10T09:19:06.137Z,1014.03
2023-01-10T09:20:06.107Z,1014.03
2023-01-10T09:21:06.101Z,1014.07
2023-01-10T09:22:06.986Z,1014.03
2023-01-10T09:23:06.081Z,1014.03
2023-01-10T09:24:06.065Z,1014.04
2023-01-10T09:25:06.069Z,1014.12
2023-01-10T09:26:06.079Z,1014.08
2023-01-10T09:27:06.029Z,1014.06
2023-01-10T09:28:06.012Z,1014.10
2023-01-10T09:29:06.000Z,1014.13
2023-01-10T09:30:06.047Z,1014.16
2023-01-10T09:31:06.070Z,1014.11
2023-01-10T09:32:05.968Z,1014.08
2023-01-10T09:33:05.958Z,1014.12
2023-01-10T09:34:05.965Z,1014.13
2023-01-10T09:35:05.971Z,1014.05
2023-01-10T09:36:05.926Z,1014.07
2023-01-10T09:37:05.915Z,1014.08
2023-01-10T09:38:05.919Z,1014.03
2023-01-10T09:39:05.913Z,1014.00
2023-01-10T09:40:05.898Z,1014.07
2023-01-10T09:41:05.866Z,1014.03
2023-01-10T09:42:05.886Z,1014.04
2023-01-10T09:43:05.852Z,1014.06
2023-01-10T09:44:05.842Z,1014.04
2023-01-10T09:45:05.865Z,1013.97
2023-01-10T09:46:05.816Z,1014.05
2023-01-10T09:47:11.247Z,1014.05
2023-01-10T09:48:06.778Z,1013.99
2023-01-10T09:49:05.795Z,1014.04
2023-01-10T09:50:05.792Z,1014.09
2023-01-10T09:51:05.766Z,1014.17
2023-01-10T09:52:05.737Z,1014.15
2023-01-10T09:53:05.733Z,1014.09
2023-01-10T09:54:12.198Z,1014.08
2023-01-10T09:55:07.603Z,1014.14
2023-01-10T09:56:05.703Z,1014.16
2023-01-10T09:57:05.702Z,1014.11
2023-01-10T09:58:05.705Z,1014.09
2023-01-10T09:59:05.676Z,1014.14
2023-01-10T10:00:05.673Z,1014.13
2023-01-10T10:01:05.671Z,1014.12
2023-01-10T10:02:05.639Z,1014.12
2023-01-10T10:03:05.705Z,1014.18
2023-01-10T10:04:05.654Z,1014.16
2023-01-10T10:05:05.629Z,1014.16
2023-01-10T10:06:11.905Z,1014.17
2023-01-10T10:07:06.563Z,1014.08
2023-01-10T10:08:05.556Z,1014.06
2023-01-10T10:09:05.549Z,1014.08
2023-01-10T10:10:05.546Z,1014.11
2023-01-10T10:11:05.536Z,1014.09
2023-01-10T10:12:05.514Z,1014.13
2023-01-10T10:13:05.960Z,1014.10
2023-01-10T10:14:05.535Z,1014.10
2023-01-10T10:15:05.504Z,1014.09
2023-01-10T10:16:05.562Z,1014.07
2023-01-10T10:17:05.471Z,1014.08
2023-01-10T10:18:05.456Z,1014.04
2023-01-10T10:19:05.444Z,1014.05
2023-01-10T10:20:05.447Z,1014.06
2023-01-10T10:21:05.421Z,1014.06
2023-01-10T10:22:05.443Z,1014.03
2023-01-10T10:23:05.394Z,1013.99
2023-01-10T10:24:05.373Z,1013.98
2023-01-10T10:25:05.398Z,1013.94
2023-01-10T10:26:05.370Z,1013.99
2023-01-10T10:27:05.365Z,1013.88
2023-01-10T10:28:05.329Z,1013.93
2023-01-10T10:29:05.315Z,1013.90
2023-01-10T10:30:05.352Z,1013.82
2023-01-10T10:31:05.344Z,1013.89
2023-01-10T10:32:05.294Z,1013.85
2023-01-10T10:33:05.269Z,1013.86
2023-01-10T10:34:05.276Z,1013.90
2023-01-10T10:35:05.332Z,1013.88
2023-01-10T10:36:05.260Z,1013.79
2023-01-10T10:37:05.226Z,1013.84
2023-01-10T10:38:05.219Z,1013.83
2023-01-10T10:39:05.205Z,1013.92
2023-01-10T10:40:05.228Z,1013.94
2023-01-10T10:41:05.186Z,1013.86
2023-01-10T10:42:05.184Z,1013.83
2023-01-10T10:43:05.167Z,1013.87
2023-01-10T10:44:05.153Z,1013.85
2023-01-10T10:45:05.152Z,1013.77
2023-01-10T10:46:05.328Z,1013.82
2023-01-10T10:47:05.122Z,1013.83
2023-01-10T10:48:05.102Z,1013.84
2023-01-10T10:49:05.090Z,1013.88
2023-01-10T10:50:05.097Z,1013.91
2023-01-10T10:51:05.065Z,1013.84
2023-01-10T10:52:05.056Z,1014.02
2023-01-10T10:53:05.062Z,1013.93
2023-01-10T10:54:05.034Z,1013.93
2023-01-10T10:55:05.026Z,1013.87
2023-01-10T10:56:05.021Z,1013.87
2023-01-10T10:57:04.995Z,1013.79
2023-01-10T10:58:05.000Z,1013.79
2023-01-10T10:59:04.994Z,1013.83
2023-01-10T11:00:04.986Z,1013.72
2023-01-10T11:01:05.112Z,1013.74
2023-01-10T11:02:05.134Z,1013.75
2023-01-10T11:03:04.941Z,1013.77
2023-01-10T11:04:04.922Z,1013.67
2023-01-10T11:05:05.026Z,1013.66
2023-01-10T11:06:04.896Z,1013.74
2023-01-10T11:07:04.885Z,1013.62
2023-01-10T11:08:04.903Z,1013.65
2023-01-10T11:09:04.891Z,1013.63
2023-01-10T11:10:04.892Z,1013.64
2023-01-10T11:11:04.834Z,1013.68
2023-01-10T11:12:04.852Z,1013.59
2023-01-10T11:13:04.824Z,1013.70
2023-01-10T11:14:04.830Z,1013.64
2023-01-10T11:15:04.808Z,1013.63
2023-01-10T11:16:04.875Z,1013.63
2023-01-10T11:17:04.780Z,1013.60
2023-01-10T11:18:04.802Z,1013.69
2023-01-10T11:19:04.758Z,1013.66
2023-01-10T11:20:04.741Z,1013.70
2023-01-10T11:21:04.736Z,1013.64
2023-01-10T11:22:04.731Z,1013.62
2023-01-10T11:23:04.719Z,1013.61
2023-01-10T11:24:04.704Z,1013.62
2023-01-10T11:25:04.689Z,1013.72
2023-01-10T11:26:04.697Z,1013.51
2023-01-10T11:27:04.656Z,1013.54
2023-01-10T11:28:04.648Z,1013.46
2023-01-10T11:29:04.647Z,1013.46
2023-01-10T11:30:04.651Z,1013.58
2023-01-10T11:31:04.623Z,1013.51
2023-01-10T11:32:04.662Z,1013.50
2023-01-10T11:33:04.600Z,1013.48
2023-01-10T11:34:04.656Z,1013.47
2023-01-10T11:35:04.565Z,1013.46
2023-01-10T11:36:04.575Z,1013.62
2023-01-10T11:37:04.545Z,1013.52
2023-01-10T11:38:04.533Z,1013.41
2023-01-10T11:39:04.528Z,1013.45
2023-01-10T11:40:04.510Z,1013.41
2023-01-10T11:41:04.522Z,1013.44
2023-01-10T11:42:04.503Z,1013.35
2023-01-10T11:43:04.470Z,1013.44
2023-01-10T11:44:04.464Z,1013.41
2023-01-10T11:45:04.465Z,1013.33
2023-01-10T11:46:04.508Z,1013.33
2023-01-10T11:47:04.495Z,1013.33
2023-01-10T11:48:04.435Z,1013.39
2023-01-10T11:49:07.307Z,1013.39
2023-01-10T11:50:04.442Z,1013.38
2023-01-10T11:51:04.411Z,1013.42
2023-01-10T11:52:04.391Z,1013.41
2023-01-10T11:53:04.369Z,1013.43
2023-01-10T11:54:04.409Z,1013.39
2023-01-10T11:55:04.342Z,1013.39
2023-01-10T11:56:04.362Z,1013.38
2023-01-10T11:57:04.340Z,1013.36
2023-01-10T11:58:04.320Z,1013.34
2023-01-10T11:59:04.289Z,1013.37
2023-01-10T12:00:04.300Z,1013.34
2023-01-10T12:01:04.348Z,1013.30
2023-01-10T12:02:04.396Z,1013.30
2023-01-10T12:03:04.257Z,1013.28
2023-01-10T12:04:04.250Z,1013.29
2023-01-10T12:05:04.304Z,1013.30
2023-01-10T12:06:04.252Z,1013.36
2023-01-10T12:07:04.204Z,1013.28
2023-01-10T12:08:04.190Z,1013.31
2023-01-10T12:09:04.179Z,1013.24
2023-01-10T12:10:04.178Z,1013.28
2023-01-10T12:11:04.186Z,1013.30
2023-01-10T12:12:04.642Z,1013.25
2023-01-10T12:13:04.129Z,1013.26
2023-01-10T12:14:04.122Z,1013.28
2023-01-10T12:15:04.123Z,1013.28
2023-01-10T12:16:04.117Z,1013.30
2023-01-10T12:17:04.163Z,1013.34
2023-01-10T12:18:04.107Z,1013.31
2023-01-10T12:19:04.061Z,1013.28
2023-01-10T12:20:04.059Z,1013.25
2023-01-10T12:21:04.123Z,1013.28
2023-01-10T12:22:04.071Z,1013.28
2023-01-10T12:23:04.029Z,1013.28
2023-01-10T12:24:04.009Z,1013.29
2023-01-10T12:25:04.007Z,1013.32
2023-01-10T12:26:11.783Z,1013.32
2023-01-10T12:27:04.986Z,1013.20
2023-01-10T12:28:03.966Z,1013.28
2023-01-10T12:29:03.977Z,1013.27
2023-01-10T12:30:03.940Z,1013.29
2023-01-10T12:31:03.969Z,1013.23
2023-01-10T12:32:03.937Z,1013.25
2023-01-10T12:33:03.918Z,1013.15
2023-01-10T12:34:03.914Z,1013.23
2023-01-10T12:35:03.905Z,1013.31
2023-01-10T12:36:03.878Z,1013.34
2023-01-10T12:37:03.868Z,1013.10
2023-01-10T12:38:03.909Z,1013.09
2023-01-10T12:39:03.868Z,1013.13
2023-01-10T12:40:03.827Z,1013.10
2023-01-10T12:41:03.811Z,1013.08
2023-01-10T12:42:03.814Z,1013.11
2023-01-10T12:43:03.788Z,1013.06
2023-01-10T12:44:03.805Z,1012.97
2023-01-10T12:45:03.799Z,1012.99
2023-01-10T12:46:12.787Z,1012.97
2023-01-10T12:47:08.046Z,1013.06
2023-01-10T12:48:03.751Z,1012.93
2023-01-10T12:49:03.729Z,1012.94
2023-01-10T12:50:03.744Z,1012.94
2023-01-10T12:51:03.708Z,1012.85
2023-01-10T12:52:03.709Z,1012.87
2023-01-10T12:53:03.681Z,1012.93
2023-01-10T12:54:03.727Z,1012.95
2023-01-10T12:55:03.674Z,1012.86
2023-01-10T12:56:03.668Z,1012.85
2023-01-10T12:57:03.659Z,1012.96
2023-01-10T12:58:03.639Z,1012.79
2023-01-10T12:59:03.620Z,1012.92
2023-01-10T13:00:03.615Z,1012.95
2023-01-10T13:01:03.727Z,1012.74
2023-01-10T13:02:03.743Z,1012.72
2023-01-10T13:03:03.634Z,1012.84
2023-01-10T13:04:03.553Z,1012.90
2023-01-10T13:05:03.560Z,1012.88
2023-01-10T13:06:03.567Z,1012.88
2023-01-10T13:07:03.543Z,1012.84
2023-01-10T13:08:03.530Z,1012.73
2023-01-10T13:09:03.512Z,1012.79
2023-01-10T13:10:03.527Z,1012.81
2023-01-10T13:11:03.489Z,1012.74
2023-01-10T13:12:03.489Z,1012.70
2023-01-10T13:13:03.464Z,1012.80
2023-01-10T13:14:03.463Z,1012.72
2023-01-10T13:15:03.449Z,1012.76
2023-01-10T13:16:03.505Z,1012.70
2023-01-10T13:17:03.431Z,1012.65
2023-01-10T13:18:03.394Z,1012.60
2023-01-10T13:19:03.395Z,1012.63
2023-01-10T13:20:03.387Z,1012.63
2023-01-10T13:21:03.357Z,1012.67
2023-01-10T13:22:03.380Z,1012.58
2023-01-10T13:23:03.341Z,1012.62
2023-01-10T13:24:03.340Z,1012.72
2023-01-10T13:25:03.324Z,1012.66
2023-01-10T13:26:03.322Z,1012.70
2023-01-10T13:27:03.320Z,1012.70
2023-01-10T13:28:03.294Z,1012.65
2023-01-10T13:29:03.276Z,1012.66
2023-01-10T13:30:03.277Z,1012.71
2023-01-10T13:31:03.312Z,1012.56
2023-01-10T13:32:03.274Z,1012.75
2023-01-10T13:33:03.227Z,1012.59
2023-01-10T13:34:03.213Z,1012.62
2023-01-10T13:35:03.221Z,1012.56
2023-01-10T13:36:03.213Z,1012.52
2023-01-10T13:37:03.188Z,1012.50
2023-01-10T13:38:03.167Z,1012.56
2023-01-10T13:39:03.193Z,1012.50
2023-01-10T13:40:03.144Z,1012.53
2023-01-10T13:41:03.130Z,1012.53
2023-01-10T13:42:03.187Z,1012.49
2023-01-10T13:43:03.105Z,1012.52
2023-01-10T13:44:03.111Z,1012.55
2023-01-10T13:45:03.103Z,1012.49
2023-01-10T13:46:03.092Z,1012.54
2023-01-10T13:47:03.092Z,1012.50
2023-01-10T13:48:03.088Z,1012.54
2023-01-10T13:49:03.036Z,1012.54
2023-01-10T13:50:03.026Z,1012.52
2023-01-10T13:51:03.027Z,1012.49
2023-01-10T13:52:03.022Z,1012.43
2023-01-10T13:53:03.004Z,1012.49
2023-01-10T13:54:03.000Z,1012.43
2023-01-10T13:55:02.969Z,1012.48
2023-01-10T13:56:02.976Z,1012.39
2023-01-10T13:57:02.958Z,1012.31
2023-01-10T13:58:02.978Z,1012.30
2023-01-10T13:59:02.922Z,1012.39
2023-01-10T14:00:02.928Z,1012.37
2023-01-10T14:01:03.034Z,1012.39
2023-01-10T14:02:03.077Z,1012.36
2023-01-10T14:03:02.877Z,1012.43
2023-01-10T14:04:02.887Z,1012.35
2023-01-10T14:05:02.857Z,1012.30
2023-01-10T14:06:02.847Z,1012.28
2023-01-10T14:07:02.861Z,1012.27
2023-01-10T14:08:02.846Z,1012.28
2023-01-10T14:09:02.825Z,1012.38
2023-01-10T14:10:04.839Z,1012.25
2023-01-10T14:11:02.806Z,1012.19
2023-01-10T14:12:02.809Z,1012.05
2023-01-10T14:13:02.779Z,1012.10
2023-01-10T14:14:02.792Z,1012.12
2023-01-10T14:15:02.763Z,1012.20
2023-01-10T14:16:04.974Z,1012.10
2023-01-10T14:17:02.761Z,1012.04
2023-01-10T14:18:02.724Z,1012.09
2023-01-10T14:19:02.706Z,1012.07
2023-01-10T14:20:02.683Z,1012.04
2023-01-10T14:21:02.694Z,1012.09
2023-01-10T14:22:02.689Z,1012.14
2023-01-10T14:23:02.664Z,1012.03
2023-01-10T14:24:02.640Z,1012.07
2023-01-10T14:25:02.649Z,1012.05
2023-01-10T14:26:02.633Z,1012.06
2023-01-10T14:27:02.622Z,1012.07
2023-01-10T14:28:02.606Z,1012.12
2023-01-10T14:29:02.616Z,1012.16
2023-01-10T14:30:02.588Z,1011.99
2023-01-10T14:31:02.693Z,1012.00
2023-01-10T14:32:02.567Z,1012.01
2023-01-10T14:33:02.555Z,1011.98
2023-01-10T14:34:02.537Z,1012.04
2023-01-10T14:35:02.565Z,1012.15
2023-01-10T14:36:02.560Z,1012.03
2023-01-10T14:37:02.525Z,1011.99
2023-01-10T14:38:02.507Z,1012.01
2023-01-10T14:39:02.501Z,1011.93
2023-01-10T14:40:02.468Z,1011.91
2023-01-10T14:41:02.484Z,1011.93
2023-01-10T14:42:02.459Z,1011.88
2023-01-10T14:43:02.441Z,1011.88
2023-01-10T14:44:02.451Z,1011.88
2023-01-10T14:45:02.415Z,1011.86
2023-01-10T14:46:02.483Z,1011.79
2023-01-10T14:47:02.407Z,1011.73
2023-01-10T14:48:02.367Z,1011.79
2023-01-10T14:49:02.395Z,1011.81
2023-01-10T14:50:02.362Z,1011.68
2023-01-10T14:51:02.336Z,1011.66
2023-01-10T14:52:02.338Z,1011.60
2023-01-10T14:53:02.323Z,1011.61
2023-01-10T14:54:02.306Z,1011.67
2023-01-10T14:55:02.306Z,1011.61
2023-01-10T14:56:02.288Z,1011.66
2023-01-10T14:57:02.280Z,1011.62
2023-01-10T14:58:02.253Z,1011.62
2023-01-10T14:59:02.260Z,1011.64
2023-01-10T15:00:02.288Z,1011.63
2023-01-10T15:01:02.283Z,1011.60
2023-01-10T15:02:02.391Z,1011.58
2023-01-10T15:03:02.209Z,1011.60
2023-01-10T15:04:02.197Z,1011.62
2023-01-10T15:05:02.254Z,1011.58
2023-01-10T15:06:02.164Z,1011.52
2023-01-10T15:07:02.162Z,1011.52
2023-01-10T15:08:02.151Z,1011.56
2023-01-10T15:09:02.148Z,1011.57
2023-01-10T15:10:02.158Z,1011.54
2023-01-10T15:11:02.111Z,1011.58
2023-01-10T15:12:02.121Z,1011.53
2023-01-10T15:13:02.085Z,1011.51
2023-01-10T15:14:02.065Z,1011.57
2023-01-10T15:15:02.078Z,1011.57
2023-01-10T15:16:02.113Z,1011.51
2023-01-10T15:17:02.075Z,1011.52
2023-01-10T15:18:02.058Z,1011.49
2023-01-10T15:19:02.021Z,1011.44
2023-01-10T15:20:02.078Z,1011.44
2023-01-10T15:21:02.011Z,1011.43
2023-01-10T15:22:02.014Z,1011.41
2023-01-10T15:23:01.969Z,1011.43
2023-01-10T15:24:01.953Z,1011.39
2023-01-10T15:25:01.953Z,1011.39
2023-01-10T15:26:01.957Z,1011.41
2023-01-10T15:27:01.934Z,1011.39
2023-01-10T15:28:01.923Z,1011.38
2023-01-10T15:29:01.926Z,1011.29
2023-01-10T15:30:02.001Z,1011.27
2023-01-10T15:31:01.931Z,1011.26
2023-01-10T15:32:01.898Z,1011.27
2023-01-10T15:33:01.889Z,1011.31
2023-01-10T15:34:01.888Z,1011.34
2023-01-10T15:35:01.834Z,1011.26
2023-01-10T15:36:01.847Z,1011.26
2023-01-10T15:37:01.829Z,1011.08
2023-01-10T15:38:01.811Z,1011.21
2023-01-10T15:39:01.787Z,1011.18
2023-01-10T15:40:01.835Z,1011.13
2023-01-10T15:41:01.806Z,1011.13
2023-01-10T15:42:01.754Z,1011.16
2023-01-10T15:43:01.744Z,1011.07
2023-01-10T15:44:01.753Z,1011.05
2023-01-10T15:45:01.735Z,1011.01
2023-01-10T15:46:01.749Z,1011.03
2023-01-10T15:47:01.699Z,1011.01
2023-01-10T15:48:01.693Z,1011.01
2023-01-10T15:49:01.702Z,1011.28
2023-01-10T15:50:01.719Z,1010.95
2023-01-10T15:51:01.678Z,1010.95
2023-01-10T15:52:01.651Z,1010.93
2023-01-10T15:53:01.625Z,1010.87
2023-01-10T15:54:01.608Z,1010.84
2023-01-10T15:55:01.619Z,1010.82
2023-01-10T15:56:01.629Z,1010.83
2023-01-10T15:57:01.613Z,1010.75
2023-01-10T15:58:01.578Z,1010.86
2023-01-10T15:59:01.578Z,1010.81
2023-01-10T16:00:01.594Z,1010.79
2023-01-10T16:01:01.793Z,1010.70
2023-01-10T16:02:01.749Z,1010.70
2023-01-10T16:03:01.607Z,1010.61
2023-01-10T16:04:01.502Z,1010.66
2023-01-10T16:05:01.502Z,1010.61
2023-01-10T16:06:01.529Z,1010.67
2023-01-10T16:07:01.499Z,1010.67
2023-01-10T16:08:01.454Z,1010.64
2023-01-10T16:09:01.456Z,1010.64
2023-01-10T16:10:02.217Z,1010.66
2023-01-10T16:11:01.421Z,1010.54
2023-01-10T16:12:01.433Z,1010.57
2023-01-10T16:13:01.440Z,1010.56
2023-01-10T16:14:01.382Z,1010.48
2023-01-10T16:15:01.388Z,1010.40
2023-01-10T16:16:01.403Z,1010.41
2023-01-10T16:17:01.379Z,1010.30
2023-01-10T16:18:01.359Z,1010.35
2023-01-10T16:19:02.891Z,1010.32
2023-01-10T16:20:01.344Z,1010.31
2023-01-10T16:21:01.311Z,1010.28
2023-01-10T16:22:01.331Z,1010.29
2023-01-10T16:23:01.330Z,1010.27
2023-01-10T16:24:01.295Z,1010.27
2023-01-10T16:25:01.289Z,1010.24
2023-01-10T16:26:01.253Z,1010.25
2023-01-10T16:27:01.267Z,1010.15
2023-01-10T16:28:01.246Z,1010.14
2023-01-10T16:29:01.233Z,1010.12
2023-01-10T16:30:01.229Z,1010.14
2023-01-10T16:31:01.255Z,1010.12
2023-01-10T16:32:01.191Z,1010.07
2023-01-10T16:33:01.169Z,1010.03
2023-01-10T16:34:01.168Z,1009.95
2023-01-10T16:35:01.148Z,1009.98
2023-01-10T16:36:01.145Z,1009.89
2023-01-10T16:37:01.140Z,1009.90
2023-01-10T16:38:01.145Z,1009.91
2023-01-10T16:39:01.116Z,1009.81
2023-01-10T16:40:01.101Z,1009.85
2023-01-10T16:41:01.088Z,1009.81
2023-01-10T16:42:01.093Z,1009.88
2023-01-10T16:43:01.057Z,1009.79
2023-01-10T16:44:01.057Z,1009.75
2023-01-10T16:45:01.038Z,1009.76
2023-01-10T16:46:01.106Z,1009.75
2023-01-10T16:47:01.040Z,1009.78
2023-01-10T16:48:01.004Z,1009.83
2023-01-10T16:49:01.014Z,1009.90
2023-01-10T16:50:00.988Z,1009.94
2023-01-10T16:51:00.973Z,1009.98
2023-01-10T16:52:01.008Z,1009.94
2023-01-10T16:53:00.945Z,1009.93
2023-01-10T16:54:00.953Z,1009.96
2023-01-10T16:55:00.930Z,1009.93
2023-01-10T16:56:00.907Z,1009.89
2023-01-10T16:57:00.916Z,1009.92
2023-01-10T16:58:00.889Z,1009.95
2023-01-10T16:59:00.899Z,1009.94
2023-01-10T17:00:00.879Z,1009.88
2023-01-10T17:01:00.961Z,1009.92
2023-01-10T17:02:00.946Z,1009.93
2023-01-10T17:03:00.847Z,1009.89
2023-01-10T17:04:00.856Z,1009.83
2023-01-10T17:05:00.828Z,1009.79
2023-01-10T17:06:00.806Z,1009.84
2023-01-10T17:07:00.801Z,1009.86
2023-01-10T17:08:00.852Z,1009.82
2023-01-10T17:09:00.765Z,1009.85
2023-01-10T17:10:00.816Z,1009.91
2023-01-10T17:11:00.764Z,1009.87
2023-01-10T17:12:00.750Z,1009.91
2023-01-10T17:13:00.730Z,1009.92
2023-01-10T17:14:00.714Z,1009.85
2023-01-10T17:15:00.709Z,1009.89
2023-01-10T17:16:00.781Z,1009.89
2023-01-10T17:17:03.237Z,1009.90
2023-01-10T17:18:00.675Z,1009.83
2023-01-10T17:19:00.664Z,1009.83
2023-01-10T17:20:00.635Z,1009.82
2023-01-10T17:21:00.675Z,1009.77
2023-01-10T17:22:00.653Z,1009.76
2023-01-10T17:23:00.634Z,1009.78
2023-01-10T17:24:00.594Z,1009.76
2023-01-10T17:25:00.582Z,1009.77
2023-01-10T17:26:00.599Z,1009.71
2023-01-10T17:27:00.584Z,1009.74
2023-01-10T17:28:00.557Z,1009.72
2023-01-10T17:29:00.547Z,1009.73
2023-01-10T17:30:00.533Z,1009.73
2023-01-10T17:31:00.515Z,1009.76
2023-01-10T17:32:00.587Z,1009.77
2023-01-10T17:33:00.503Z,1009.79
2023-01-10T17:34:00.475Z,1009.83
2023-01-10T17:35:00.489Z,1009.86
2023-01-10T17:36:00.452Z,1009.85
2023-01-10T17:37:00.477Z,1009.79
2023-01-10T17:38:00.440Z,1009.88
2023-01-10T17:39:00.446Z,1009.78
2023-01-10T17:40:00.426Z,1009.82
2023-01-10T17:41:00.400Z,1009.84
2023-01-10T17:42:00.419Z,1009.75
2023-01-10T17:43:00.388Z,1009.73
2023-01-10T17:44:00.360Z,1009.71
2023-01-10T17:45:00.365Z,1009.73
2023-01-10T17:46:00.448Z,1009.74
2023-01-10T17:47:00.343Z,1009.75
2023-01-10T17:48:00.334Z,1009.74
2023-01-10T17:49:00.334Z,1009.70
2023-01-10T17:50:00.291Z,1009.70
2023-01-10T17:51:00.313Z,1009.68
2023-01-10T17:52:00.298Z,1009.65
2023-01-10T17:53:00.261Z,1009.64
2023-01-10T17:54:00.265Z,1009.59
2023-01-10T17:55:00.246Z,1009.62
2023-01-10T17:56:00.310Z,1009.59
2023-01-10T17:57:00.236Z,1009.63
2023-01-10T17:58:00.223Z,1009.60
2023-01-10T17:59:00.201Z,1009.58
2023-01-10T18:00:00.190Z,1009.58
2023-01-10T18:01:00.277Z,1009.51
2023-01-10T18:02:00.424Z,1009.45
2023-01-10T18:03:00.311Z,1009.49
2023-01-10T18:04:00.153Z,1009.43
2023-01-10T18:05:00.143Z,1009.42
2023-01-10T18:06:00.127Z,1009.35
2023-01-10T18:07:00.105Z,1009.32
2023-01-10T18:08:00.108Z,1009.38
2023-01-10T18:09:00.115Z,1009.35
2023-01-10T18:10:00.128Z,1009.29
2023-01-10T18:11:00.122Z,1009.24
2023-01-10T18:12:00.063Z,1009.25
2023-01-10T18:13:02.516Z,1009.28
2023-01-10T18:14:00.061Z,1009.29
2023-01-10T18:15:00.043Z,1009.27
2023-01-10T18:16:00.006Z,1009.18
2023-01-10T18:17:00.081Z,1009.15
2023-01-10T18:17:59.996Z,1009.15
2023-01-10T18:18:59.999Z,1009.17
2023-01-10T18:19:59.976Z,1009.19
2023-01-10T18:20:59.949Z,1009.23
2023-01-10T18:21:59.941Z,1009.25
2023-01-10T18:22:59.941Z,1009.21
2023-01-10T18:23:59.951Z,1009.21
2023-01-10T18:24:59.905Z,1009.24
2023-01-10T18:25:59.924Z,1009.24
2023-01-10T18:26:59.893Z,1009.21
2023-01-10T18:27:59.866Z,1009.19
2023-01-10T18:28:59.872Z,1009.17
2023-01-10T18:29:59.877Z,1009.14
2023-01-10T18:30:59.878Z,1009.09
2023-01-10T18:31:59.821Z,1009.05
2023-01-10T18:32:59.829Z,1009.09
2023-01-10T18:33:59.836Z,1009.09
2023-01-10T18:34:59.787Z,1009.15
2023-01-10T18:35:59.779Z,1009.05
2023-01-10T18:36:59.776Z,1009.05
2023-01-10T18:37:59.769Z,1009.08
2023-01-10T18:38:59.773Z,1009.06
2023-01-10T18:39:59.733Z,1008.97
2023-01-10T18:40:59.717Z,1008.97
2023-01-10T18:41:59.722Z,1008.97
2023-01-10T18:42:59.707Z,1009.00
2023-01-10T18:43:59.699Z,1008.91
2023-01-10T18:44:59.677Z,1008.92
2023-01-10T18:45:59.744Z,1008.87
2023-01-10T18:46:59.677Z,1008.85
2023-01-10T18:47:59.641Z,1008.85
2023-01-10T18:48:59.672Z,1008.81
2023-01-10T18:49:59.624Z,1008.81
2023-01-10T18:50:59.630Z,1008.72
2023-01-10T18:51:59.615Z,1008.80
2023-01-10T18:52:59.599Z,1008.72
2023-01-10T18:53:59.606Z,1008.70
2023-01-10T18:55:02.168Z,1008.71
2023-01-10T18:55:59.566Z,1008.68
2023-01-10T18:56:59.544Z,1008.72
2023-01-10T18:57:59.529Z,1008.75
2023-01-10T18:58:59.515Z,1008.71
2023-01-10T18:59:59.521Z,1008.67
2023-01-10T19:00:59.604Z,1008.64
2023-01-10T19:01:59.509Z,1008.67
2023-01-10T19:02:59.497Z,1008.65
2023-01-10T19:03:59.470Z,1008.63
2023-01-10T19:04:59.441Z,1008.58
2023-01-10T19:05:59.523Z,1008.62
2023-01-10T19:06:59.419Z,1008.62
2023-01-10T19:07:59.434Z,1008.63
2023-01-10T19:08:59.414Z,1008.62
2023-01-10T19:09:59.399Z,1008.57
2023-01-10T19:11:12.948Z,1008.53
2023-01-10T19:12:00.370Z,1008.57
2023-01-10T19:12:59.360Z,1008.56
2023-01-10T19:13:59.360Z,1008.56
2023-01-10T19:14:59.345Z,1008.60
2023-01-10T19:15:59.381Z,1008.53
2023-01-10T19:16:59.331Z,1008.55
2023-01-10T19:17:59.339Z,1008.49
2023-01-10T19:18:59.290Z,1008.53
2023-01-10T19:19:59.283Z,1008.46
2023-01-10T19:20:59.283Z,1008.50
2023-01-10T19:21:59.294Z,1008.50
2023-01-10T19:22:59.243Z,1008.44
2023-01-10T19:23:59.236Z,1008.46
2023-01-10T19:24:59.297Z,1008.42
2023-01-10T19:25:59.232Z,1008.36
2023-01-10T19:26:59.238Z,1008.37
2023-01-10T19:27:59.204Z,1008.38
2023-01-10T19:28:59.182Z,1008.29
2023-01-10T19:29:59.183Z,1008.39
2023-01-10T19:31:04.552Z,1008.38
2023-01-10T19:32:00.287Z,1008.23
2023-01-10T19:32:59.146Z,1008.29
2023-01-10T19:33:59.163Z,1008.30
2023-01-10T19:34:59.199Z,1008.26
2023-01-10T19:35:59.098Z,1008.27
2023-01-10T19:36:59.110Z,1008.27
2023-01-10T19:37:59.095Z,1008.26
2023-01-10T19:38:59.114Z,1008.18
2023-01-10T19:39:59.058Z,1008.24
2023-01-10T19:40:59.052Z,1008.24
2023-01-10T19:41:59.062Z,1008.25
2023-01-10T19:42:59.028Z,1008.29
2023-01-10T19:43:59.008Z,1008.26
2023-01-10T19:44:59.048Z,1008.24
2023-01-10T19:45:59.064Z,1008.23
2023-01-10T19:46:59.001Z,1008.22
2023-01-10T19:47:58.964Z,1008.25
2023-01-10T19:48:58.950Z,1008.22
2023-01-10T19:49:58.968Z,1008.22
2023-01-10T19:50:58.937Z,1008.20
2023-01-10T19:51:58.951Z,1008.26
2023-01-10T19:52:58.912Z,1008.17
2023-01-10T19:53:58.915Z,1008.22
2023-01-10T19:54:59.004Z,1008.09
2023-01-10T19:55:59.779Z,1008.12
2023-01-10T19:56:58.903Z,1008.11
2023-01-10T19:57:58.848Z,1008.07
2023-01-10T19:58:58.830Z,1008.11
2023-01-10T19:59:58.828Z,1008.06
2023-01-10T20:00:58.825Z,1008.04
2023-01-10T20:01:58.885Z,1008.09
2023-01-10T20:02:58.912Z,1008.05
2023-01-10T20:03:58.843Z,1008.05
2023-01-10T20:04:58.885Z,1008.09
2023-01-10T20:05:58.794Z,1008.06
2023-01-10T20:06:58.876Z,1008.08
2023-01-10T20:07:58.750Z,1008.07
2023-01-10T20:08:58.729Z,1008.07
2023-01-10T20:09:58.715Z,1008.03
2023-01-10T20:10:58.711Z,1008.03